createdAt,value
2022-09-06T00:00:22.163Z,7.10
2022-09-06T00:01:22.143Z,9.30
2022-09-06T00:02:22.178Z,8.50
2022-09-06T00:03:22.140Z,11.00
2022-09-06T00:04:22.145Z,8.60
2022-09-06T00:05:22.096Z,9.30
2022-09-06T00:06:22.089Z,7.40
2022-09-06T00:07:22.090Z,7.40
2022-09-06T00:08:22.066Z,9.00
2022-09-06T00:09:22.057Z,8.80
2022-09-06T00:10:22.047Z,8.70
2022-09-06T00:11:22.029Z,8.50
2022-09-06T00:12:22.059Z,9.20
2022-09-06T00:13:22.021Z,7.30
2022-09-06T00:14:22.008Z,9.20
2022-09-06T00:15:21.982Z,9.40
2022-09-06T00:16:22.053Z,9.80
2022-09-06T00:17:21.992Z,9.90
2022-09-06T00:18:22.016Z,8.00
2022-09-06T00:19:21.959Z,9.20
2022-09-06T00:20:21.952Z,11.00
2022-09-06T00:21:21.931Z,7.70
2022-09-06T00:22:21.948Z,9.00
2022-09-06T00:23:21.907Z,9.10
2022-09-06T00:24:21.897Z,6.80
2022-09-06T00:25:21.894Z,8.70
2022-09-06T00:26:21.907Z,6.30
2022-09-06T00:27:21.881Z,9.20
2022-09-06T00:28:21.962Z,9.20
2022-09-06T00:29:21.877Z,9.70
2022-09-06T00:30:21.847Z,11.20
2022-09-06T00:31:21.916Z,8.90
2022-09-06T00:32:21.827Z,9.80
2022-09-06T00:33:21.818Z,10.00
2022-09-06T00:34:21.806Z,8.10
2022-09-06T00:35:21.800Z,8.60
2022-09-06T00:36:21.807Z,8.40
2022-09-06T00:37:21.775Z,8.90
2022-09-06T00:38:21.773Z,8.20
2022-09-06T00:39:21.766Z,12.00
2022-09-06T00:40:21.756Z,7.90
2022-09-06T00:41:21.763Z,7.80
2022-09-06T00:42:21.749Z,8.40
2022-09-06T00:43:21.716Z,10.60
2022-09-06T00:44:21.700Z,8.90
2022-09-06T00:45:21.704Z,8.50
2022-09-06T00:46:21.736Z,10.80
2022-09-06T00:47:21.672Z,8.40
2022-09-06T00:48:21.669Z,10.40
2022-09-06T00:49:21.665Z,10.20
2022-09-06T00:50:21.652Z,7.60
2022-09-06T00:51:21.654Z,9.80
2022-09-06T00:52:21.617Z,9.40
2022-09-06T00:53:22.617Z,8.90
2022-09-06T00:54:21.608Z,9.40
2022-09-06T00:55:21.606Z,8.80
2022-09-06T00:56:21.635Z,11.00
2022-09-06T00:57:21.581Z,9.80
2022-09-06T00:58:21.571Z,9.20
2022-09-06T00:59:21.561Z,12.70
2022-09-06T01:00:21.552Z,10.10
2022-09-06T01:01:21.613Z,8.30
2022-09-06T01:02:21.656Z,12.10
2022-09-06T01:03:21.536Z,8.70
2022-09-06T01:04:21.515Z,10.20
2022-09-06T01:05:21.506Z,9.70
2022-09-06T01:06:21.509Z,7.60
2022-09-06T01:07:21.488Z,9.40
2022-09-06T01:08:21.519Z,9.10
2022-09-06T01:09:21.464Z,9.20
2022-09-06T01:10:21.459Z,9.30
2022-09-06T01:11:21.467Z,8.60
2022-09-06T01:12:21.472Z,10.50
2022-09-06T01:13:21.427Z,10.50
2022-09-06T01:14:21.411Z,13.00
2022-09-06T01:15:21.400Z,12.40
2022-09-06T01:16:21.410Z,11.70
2022-09-06T01:17:21.408Z,10.90
2022-09-06T01:18:21.406Z,11.60
2022-09-06T01:19:21.366Z,9.60
2022-09-06T01:20:21.357Z,10.20
2022-09-06T01:21:21.338Z,8.00
2022-09-06T01:22:21.357Z,8.40
2022-09-06T01:23:21.325Z,10.20
2022-09-06T01:24:21.333Z,11.80
2022-09-06T01:25:21.305Z,10.80
2022-09-06T01:26:21.287Z,11.70
2022-09-06T01:27:21.308Z,12.10
2022-09-06T01:28:21.323Z,11.60
2022-09-06T01:29:21.266Z,11.20
2022-09-06T01:30:21.276Z,10.00
2022-09-06T01:31:21.310Z,10.50
2022-09-06T01:32:21.238Z,9.50
2022-09-06T01:33:21.228Z,8.40
2022-09-06T01:34:21.240Z,12.40
2022-09-06T01:35:21.204Z,10.00
2022-09-06T01:36:21.217Z,9.50
2022-09-06T01:37:21.189Z,8.10
2022-09-06T01:38:21.226Z,10.20
2022-09-06T01:39:21.155Z,8.80
2022-09-06T01:40:21.153Z,10.10
2022-09-06T01:41:21.171Z,10.90
2022-09-06T01:42:21.147Z,11.30
2022-09-06T01:43:21.132Z,11.80
2022-09-06T01:44:21.121Z,8.80
2022-09-06T01:45:21.113Z,15.30
2022-09-06T01:46:21.153Z,10.00
2022-09-06T01:47:21.077Z,9.90
2022-09-06T01:48:21.187Z,10.60
2022-09-06T01:49:21.072Z,12.20
2022-09-06T01:50:21.074Z,9.70
2022-09-06T01:51:21.060Z,14.00
2022-09-06T01:52:21.038Z,8.80
2022-09-06T01:53:21.029Z,10.40
2022-09-06T01:54:21.020Z,9.60
2022-09-06T01:55:21.009Z,11.50
2022-09-06T01:56:21.029Z,10.00
2022-09-06T01:57:20.983Z,12.50
2022-09-06T01:58:21.039Z,8.60
2022-09-06T01:59:20.976Z,10.10
2022-09-06T02:00:20.957Z,10.90
2022-09-06T02:01:21.016Z,9.60
2022-09-06T02:02:20.978Z,12.50
2022-09-06T02:03:20.926Z,12.10
2022-09-06T02:04:20.921Z,11.40
2022-09-06T02:05:20.909Z,11.70
2022-09-06T02:06:20.915Z,13.70
2022-09-06T02:07:20.882Z,12.80
2022-09-06T02:08:20.894Z,10.80
2022-09-06T02:09:20.872Z,13.50
2022-09-06T02:10:20.871Z,15.40
2022-09-06T02:11:20.917Z,12.10
2022-09-06T02:12:20.837Z,11.10
2022-09-06T02:13:20.827Z,12.50
2022-09-06T02:14:20.828Z,11.70
2022-09-06T02:15:20.815Z,13.50
2022-09-06T02:16:20.892Z,11.60
2022-09-06T02:17:20.811Z,12.70
2022-09-06T02:18:20.771Z,12.10
2022-09-06T02:19:21.784Z,11.80
2022-09-06T02:20:20.760Z,12.60
2022-09-06T02:21:20.772Z,11.70
2022-09-06T02:22:20.745Z,13.70
2022-09-06T02:23:20.727Z,14.90
2022-09-06T02:24:20.721Z,15.00
2022-09-06T02:25:20.710Z,12.00
2022-09-06T02:26:20.726Z,12.90
2022-09-06T02:27:20.698Z,11.90
2022-09-06T02:28:20.769Z,14.40
2022-09-06T02:29:20.682Z,14.50
2022-09-06T02:30:20.661Z,11.90
2022-09-06T02:31:20.712Z,11.50
2022-09-06T02:32:20.652Z,15.00
2022-09-06T02:33:20.633Z,13.60
2022-09-06T02:34:20.630Z,13.80
2022-09-06T02:35:20.614Z,14.80
2022-09-06T02:36:20.625Z,12.60
2022-09-06T02:37:20.601Z,16.10
2022-09-06T02:38:20.676Z,11.70
2022-09-06T02:39:20.620Z,11.50
2022-09-06T02:40:20.568Z,13.40
2022-09-06T02:41:20.581Z,15.00
2022-09-06T02:42:20.656Z,13.60
2022-09-06T02:43:20.548Z,13.60
2022-09-06T02:44:20.552Z,11.60
2022-09-06T02:45:20.535Z,15.80
2022-09-06T02:46:20.605Z,14.00
2022-09-06T02:47:20.496Z,13.20
2022-09-06T02:48:20.571Z,13.50
2022-09-06T02:49:20.479Z,10.50
2022-09-06T02:50:21.487Z,10.70
2022-09-06T02:51:20.474Z,12.20
2022-09-06T02:52:20.452Z,13.10
2022-09-06T02:53:20.435Z,12.70
2022-09-06T02:54:20.423Z,15.10
2022-09-06T02:55:20.417Z,12.40
2022-09-06T02:56:20.410Z,15.10
2022-09-06T02:57:20.426Z,10.10
2022-09-06T02:58:20.461Z,12.50
2022-09-06T02:59:20.388Z,9.70
2022-09-06T03:00:20.390Z,16.20
2022-09-06T03:01:20.449Z,13.70
2022-09-06T03:02:20.469Z,11.90
2022-09-06T03:03:20.347Z,10.20
2022-09-06T03:04:20.351Z,14.80
2022-09-06T03:05:20.355Z,11.50
2022-09-06T03:06:20.315Z,11.30
2022-09-06T03:07:20.345Z,14.30
2022-09-06T03:08:20.332Z,13.70
2022-09-06T03:09:20.288Z,14.20
2022-09-06T03:10:20.276Z,12.20
2022-09-06T03:11:20.273Z,15.40
2022-09-06T03:12:20.271Z,12.30
2022-09-06T03:13:20.256Z,17.60
2022-09-06T03:14:20.253Z,12.30
2022-09-06T03:15:20.230Z,21.90
2022-09-06T03:16:20.267Z,16.00
2022-09-06T03:17:20.228Z,13.90
2022-09-06T03:18:20.209Z,11.50
2022-09-06T03:19:20.240Z,14.60
2022-09-06T03:20:20.177Z,17.90
2022-09-06T03:21:20.174Z,15.60
2022-09-06T03:22:20.222Z,13.00
2022-09-06T03:23:20.148Z,18.70
2022-09-06T03:24:20.143Z,11.00
2022-09-06T03:25:20.132Z,13.60
2022-09-06T03:26:20.116Z,12.90
2022-09-06T03:27:20.133Z,16.70
2022-09-06T03:28:20.106Z,15.00
2022-09-06T03:29:20.089Z,12.80
2022-09-06T03:30:20.070Z,14.70
2022-09-06T03:31:20.168Z,15.80
2022-09-06T03:32:20.076Z,14.80
2022-09-06T03:33:20.046Z,13.00
2022-09-06T03:34:20.045Z,13.80
2022-09-06T03:35:20.024Z,13.50
2022-09-06T03:36:20.012Z,14.90
2022-09-06T03:37:20.030Z,17.00
2022-09-06T03:38:20.039Z,17.20
2022-09-06T03:39:21.005Z,17.30
2022-09-06T03:40:19.974Z,13.10
2022-09-06T03:41:19.972Z,14.70
2022-09-06T03:42:19.976Z,13.40
2022-09-06T03:43:19.948Z,14.30
2022-09-06T03:44:19.943Z,15.80
2022-09-06T03:45:19.928Z,15.60
2022-09-06T03:46:19.974Z,22.40
2022-09-06T03:47:19.927Z,16.50
2022-09-06T03:48:19.899Z,16.50
2022-09-06T03:49:19.895Z,11.00
2022-09-06T03:50:19.869Z,15.00
2022-09-06T03:51:19.905Z,12.70
2022-09-06T03:52:19.878Z,14.50
2022-09-06T03:53:19.840Z,14.40
2022-09-06T03:54:19.824Z,13.80
2022-09-06T03:55:19.824Z,17.90
2022-09-06T03:56:19.813Z,11.70
2022-09-06T03:57:19.852Z,12.70
2022-09-06T03:58:19.789Z,14.40
2022-09-06T03:59:19.827Z,13.30
2022-09-06T04:00:19.782Z,16.70
2022-09-06T04:01:19.827Z,14.00
2022-09-06T04:02:19.822Z,16.00
2022-09-06T04:03:19.753Z,12.10
2022-09-06T04:04:19.743Z,15.00
2022-09-06T04:05:19.732Z,14.60
2022-09-06T04:06:19.723Z,14.80
2022-09-06T04:07:19.732Z,17.00
2022-09-06T04:08:19.700Z,17.50
2022-09-06T04:09:19.692Z,12.30
2022-09-06T04:10:19.690Z,18.60
2022-09-06T04:11:19.676Z,16.60
2022-09-06T04:12:19.689Z,16.70
2022-09-06T04:13:19.651Z,18.50
2022-09-06T04:14:19.635Z,18.80
2022-09-06T04:15:19.636Z,14.30
2022-09-06T04:16:19.676Z,14.40
2022-09-06T04:17:19.636Z,15.50
2022-09-06T04:18:19.602Z,11.70
2022-09-06T04:19:19.599Z,13.40
2022-09-06T04:20:19.577Z,14.80
2022-09-06T04:21:19.575Z,18.50
2022-09-06T04:22:19.609Z,15.10
2022-09-06T04:23:19.555Z,15.80
2022-09-06T04:24:19.563Z,13.80
2022-09-06T04:25:19.536Z,15.80
2022-09-06T04:26:19.525Z,13.60
2022-09-06T04:27:19.529Z,15.70
2022-09-06T04:28:19.506Z,17.40
2022-09-06T04:29:19.493Z,16.80
2022-09-06T04:30:19.484Z,16.80
2022-09-06T04:31:19.527Z,19.00
2022-09-06T04:32:19.497Z,15.20
2022-09-06T04:33:19.484Z,16.20
2022-09-06T04:34:19.444Z,15.70
2022-09-06T04:35:19.434Z,13.80
2022-09-06T04:36:19.424Z,12.70
2022-09-06T04:37:19.433Z,17.60
2022-09-06T04:38:19.405Z,14.50
2022-09-06T04:39:19.394Z,17.20
2022-09-06T04:40:19.399Z,14.70
2022-09-06T04:41:19.374Z,16.50
2022-09-06T04:42:19.377Z,14.70
2022-09-06T04:43:19.347Z,16.00
2022-09-06T04:44:19.344Z,13.00
2022-09-06T04:45:19.331Z,15.30
2022-09-06T04:46:19.405Z,14.40
2022-09-06T04:47:19.328Z,14.20
2022-09-06T04:48:19.313Z,15.30
2022-09-06T04:49:19.303Z,15.20
2022-09-06T04:50:19.284Z,14.90
2022-09-06T04:51:19.259Z,10.90
2022-09-06T04:52:19.283Z,13.20
2022-09-06T04:53:19.248Z,13.80
2022-09-06T04:54:19.260Z,13.10
2022-09-06T04:55:19.241Z,16.60
2022-09-06T04:56:19.219Z,12.90
2022-09-06T04:57:19.222Z,14.70
2022-09-06T04:58:19.199Z,15.90
2022-09-06T04:59:19.178Z,13.40
2022-09-06T05:00:19.185Z,13.60
2022-09-06T05:01:19.276Z,11.50
2022-09-06T05:02:19.214Z,14.30
2022-09-06T05:03:19.150Z,13.20
2022-09-06T05:04:19.136Z,14.70
2022-09-06T05:05:19.130Z,15.90
2022-09-06T05:06:19.124Z,14.50
2022-09-06T05:07:19.129Z,17.70
2022-09-06T05:08:19.098Z,16.00
2022-09-06T05:09:19.090Z,11.20
2022-09-06T05:10:19.088Z,14.50
2022-09-06T05:11:19.065Z,15.10
2022-09-06T05:12:19.077Z,16.40
2022-09-06T05:13:19.053Z,23.30
2022-09-06T05:14:19.054Z,20.00
2022-09-06T05:15:19.036Z,16.00
2022-09-06T05:16:19.080Z,15.20
2022-09-06T05:17:19.030Z,17.10
2022-09-06T05:18:19.005Z,19.30
2022-09-06T05:19:18.976Z,13.70
2022-09-06T05:20:18.980Z,11.80
2022-09-06T05:21:18.969Z,14.40
2022-09-06T05:22:18.975Z,11.00
2022-09-06T05:23:18.949Z,17.20
2022-09-06T05:24:18.934Z,13.80
2022-09-06T05:25:18.931Z,15.10
2022-09-06T05:26:18.919Z,14.40
2022-09-06T05:27:18.937Z,14.30
2022-09-06T05:28:18.901Z,15.10
2022-09-06T05:29:18.891Z,11.30
2022-09-06T05:30:18.882Z,12.30
2022-09-06T05:31:18.904Z,11.50
2022-09-06T05:32:18.879Z,13.50
2022-09-06T05:33:18.884Z,14.40
2022-09-06T05:34:18.852Z,12.90
2022-09-06T05:35:18.838Z,14.40
2022-09-06T05:36:18.812Z,11.10
2022-09-06T05:37:18.834Z,10.90
2022-09-06T05:38:18.803Z,11.20
2022-09-06T05:39:18.787Z,12.50
2022-09-06T05:40:18.782Z,12.10
2022-09-06T05:41:18.790Z,13.30
2022-09-06T05:42:19.507Z,14.50
2022-09-06T05:43:19.760Z,10.80
2022-09-06T05:44:18.742Z,13.10
2022-09-06T05:45:18.739Z,14.50
2022-09-06T05:46:18.820Z,13.20
2022-09-06T05:47:18.728Z,14.60
2022-09-06T05:48:18.706Z,13.40
2022-09-06T05:49:18.723Z,13.70
2022-09-06T05:50:18.680Z,16.40
2022-09-06T05:51:18.675Z,14.40
2022-09-06T05:52:18.693Z,13.60
2022-09-06T05:53:18.671Z,12.70
2022-09-06T05:54:18.662Z,12.30
2022-09-06T05:55:18.647Z,14.70
2022-09-06T05:56:18.631Z,12.50
2022-09-06T05:57:18.635Z,11.50
2022-09-06T05:58:18.600Z,14.50
2022-09-06T05:59:18.597Z,11.70
2022-09-06T06:00:18.588Z,12.20
2022-09-06T06:01:18.639Z,13.20
2022-09-06T06:02:18.605Z,13.90
2022-09-06T06:03:18.561Z,13.70
2022-09-06T06:04:18.569Z,14.30
2022-09-06T06:05:18.542Z,12.20
2022-09-06T06:06:18.536Z,15.90
2022-09-06T06:07:18.539Z,13.10
2022-09-06T06:08:18.519Z,10.60
2022-09-06T06:09:18.505Z,12.60
2022-09-06T06:10:18.483Z,14.00
2022-09-06T06:11:18.482Z,13.50
2022-09-06T06:12:18.494Z,16.80
2022-09-06T06:13:18.537Z,16.10
2022-09-06T06:14:18.448Z,10.80
2022-09-06T06:15:18.466Z,12.70
2022-09-06T06:16:18.477Z,12.50
2022-09-06T06:17:18.442Z,16.00
2022-09-06T06:18:18.411Z,17.40
2022-09-06T06:19:18.400Z,18.40
2022-09-06T06:20:18.390Z,12.70
2022-09-06T06:21:18.384Z,11.90
2022-09-06T06:22:18.390Z,13.60
2022-09-06T06:23:18.366Z,12.80
2022-09-06T06:24:18.356Z,14.60
2022-09-06T06:25:18.339Z,13.50
2022-09-06T06:26:18.331Z,11.60
2022-09-06T06:27:18.346Z,17.50
2022-09-06T06:28:18.311Z,13.30
2022-09-06T06:29:18.313Z,12.60
2022-09-06T06:30:18.658Z,13.30
2022-09-06T06:31:18.335Z,13.00
2022-09-06T06:32:18.297Z,15.60
2022-09-06T06:33:18.266Z,11.40
2022-09-06T06:34:18.257Z,14.90
2022-09-06T06:35:18.248Z,13.40
2022-09-06T06:36:18.233Z,13.90
2022-09-06T06:37:18.251Z,10.80
2022-09-06T06:38:18.227Z,11.00
2022-09-06T06:39:18.208Z,13.80
2022-09-06T06:40:18.199Z,13.50
2022-09-06T06:41:18.192Z,10.50
2022-09-06T06:42:18.201Z,14.10
2022-09-06T06:43:18.173Z,11.70
2022-09-06T06:44:18.182Z,16.80
2022-09-06T06:45:18.147Z,12.80
2022-09-06T06:46:18.228Z,15.40
2022-09-06T06:47:18.154Z,10.70
2022-09-06T06:48:18.123Z,10.30
2022-09-06T06:49:18.143Z,11.40
2022-09-06T06:50:18.096Z,12.20
2022-09-06T06:51:18.096Z,10.80
2022-09-06T06:52:18.105Z,11.50
2022-09-06T06:53:18.074Z,11.80
2022-09-06T06:54:18.058Z,12.00
2022-09-06T06:55:18.046Z,12.10
2022-09-06T06:56:18.043Z,10.90
2022-09-06T06:57:18.084Z,11.80
2022-09-06T06:58:18.014Z,12.60
2022-09-06T06:59:18.012Z,10.50
2022-09-06T07:00:18.010Z,12.80
2022-09-06T07:01:18.104Z,10.10
2022-09-06T07:02:18.117Z,11.40
2022-09-06T07:03:17.994Z,13.80
2022-09-06T07:04:17.960Z,10.60
2022-09-06T07:06:20.007Z,11.70
2022-09-06T07:07:35.405Z,12.40
2022-09-06T07:08:19.920Z,13.50
2022-09-06T07:09:17.911Z,12.40
2022-09-06T07:10:33.505Z,14.90
2022-09-06T07:11:21.746Z,10.00
2022-09-06T07:12:17.911Z,10.90
2022-09-06T07:13:17.879Z,12.70
2022-09-06T07:14:17.862Z,11.10
2022-09-06T07:15:17.866Z,14.40
2022-09-06T07:16:17.914Z,12.30
2022-09-06T07:17:17.858Z,10.90
2022-09-06T07:18:17.820Z,9.40
2022-09-06T07:20:19.813Z,15.30
2022-09-06T07:22:19.827Z,10.10
2022-09-06T07:24:19.775Z,12.00
2022-09-06T07:25:21.137Z,10.60
2022-09-06T07:26:18.754Z,11.90
2022-09-06T07:28:19.737Z,10.30
2022-09-06T07:29:17.730Z,13.80
2022-09-06T07:30:17.712Z,12.90
2022-09-06T07:32:19.729Z,16.60
2022-09-06T07:33:18.687Z,14.90
2022-09-06T07:34:17.713Z,11.70
2022-09-06T07:35:17.662Z,13.00
2022-09-06T07:36:17.664Z,10.60
2022-09-06T07:37:17.673Z,12.60
2022-09-06T07:38:17.644Z,10.70
2022-09-06T07:39:17.628Z,16.50
2022-09-06T07:40:17.619Z,11.00
2022-09-06T07:41:17.659Z,11.70
2022-09-06T07:42:17.613Z,17.60
2022-09-06T07:43:17.601Z,9.70
2022-09-06T07:44:17.583Z,11.50
2022-09-06T07:45:17.577Z,11.50
2022-09-06T07:46:17.603Z,10.80
2022-09-06T07:48:19.559Z,14.50
2022-09-06T07:49:17.559Z,11.90
2022-09-06T07:50:48.687Z,12.80
2022-09-06T07:51:19.546Z,14.90
2022-09-06T07:53:26.384Z,11.00
2022-09-06T07:54:30.357Z,12.10
2022-09-06T07:55:19.485Z,10.40
2022-09-06T07:56:17.493Z,11.00
2022-09-06T07:57:17.464Z,15.60
2022-09-06T07:58:17.466Z,10.50
2022-09-06T07:59:17.433Z,10.50
2022-09-06T08:00:17.425Z,12.10
2022-09-06T08:01:17.456Z,11.10
2022-09-06T08:02:17.443Z,9.40
2022-09-06T08:03:17.393Z,11.20
2022-09-06T08:04:17.387Z,10.80
2022-09-06T08:06:19.387Z,9.40
2022-09-06T08:09:19.348Z,13.30
2022-09-06T08:10:18.733Z,8.90
2022-09-06T08:11:17.314Z,8.10
2022-09-06T08:12:17.325Z,14.10
2022-09-06T08:13:17.298Z,13.80
2022-09-06T08:14:17.281Z,10.10
2022-09-06T08:15:17.299Z,9.40
2022-09-06T08:16:17.282Z,12.00
2022-09-06T08:17:17.291Z,8.60
2022-09-06T08:18:17.258Z,12.30
2022-09-06T08:19:17.287Z,9.70
2022-09-06T08:20:17.230Z,6.30
2022-09-06T08:21:17.223Z,7.50
2022-09-06T08:22:17.233Z,11.00
2022-09-06T08:23:17.200Z,10.90
2022-09-06T08:24:17.209Z,10.50
2022-09-06T08:25:17.191Z,9.90
2022-09-06T08:26:17.178Z,9.20
2022-09-06T08:27:17.181Z,8.80
2022-09-06T08:28:17.150Z,9.10
2022-09-06T08:29:17.139Z,8.40
2022-09-06T08:30:17.128Z,9.40
2022-09-06T08:31:17.162Z,11.20
2022-09-06T08:32:17.125Z,8.90
2022-09-06T08:33:17.097Z,9.50
2022-09-06T08:34:17.083Z,9.80
2022-09-06T08:35:17.081Z,11.90
2022-09-06T08:36:17.082Z,10.60
2022-09-06T08:37:17.079Z,12.10
2022-09-06T08:38:17.049Z,9.10
2022-09-06T08:39:17.038Z,9.30
2022-09-06T08:40:17.023Z,10.70
2022-09-06T08:41:17.014Z,10.90
2022-09-06T08:42:17.024Z,8.50
2022-09-06T08:43:16.998Z,9.10
2022-09-06T08:45:18.980Z,10.20
2022-09-06T08:46:17.024Z,11.10
2022-09-06T08:47:16.968Z,10.80
2022-09-06T08:48:16.953Z,12.60
2022-09-06T08:49:16.951Z,11.50
2022-09-06T08:50:16.934Z,14.60
2022-09-06T08:51:16.950Z,24.30
2022-09-06T08:52:16.932Z,19.10
2022-09-06T08:53:17.912Z,11.40
2022-09-06T08:54:17.901Z,10.50
2022-09-06T08:55:16.887Z,10.30
2022-09-06T08:56:16.909Z,11.40
2022-09-06T08:57:16.868Z,11.50
2022-09-06T08:58:16.853Z,14.40
2022-09-06T08:59:16.849Z,11.90
2022-09-06T09:00:16.855Z,12.50
2022-09-06T09:01:16.917Z,11.10
2022-09-06T09:02:16.879Z,13.40
2022-09-06T09:03:17.229Z,11.40
2022-09-06T09:04:17.814Z,8.50
2022-09-06T09:05:16.793Z,11.60
2022-09-06T09:06:16.803Z,9.40
2022-09-06T09:07:16.767Z,9.30
2022-09-06T09:08:16.757Z,8.70
2022-09-06T09:09:16.741Z,8.10
2022-09-06T09:10:16.785Z,9.70
2022-09-06T09:11:16.755Z,12.00
2022-09-06T09:12:16.715Z,10.70
2022-09-06T09:13:16.714Z,14.80
2022-09-06T09:14:16.702Z,10.60
2022-09-06T09:15:16.700Z,13.70
2022-09-06T09:16:16.746Z,10.50
2022-09-06T09:17:16.695Z,9.90
2022-09-06T09:18:16.653Z,9.50
2022-09-06T09:19:16.678Z,10.60
2022-09-06T09:20:16.644Z,8.90
2022-09-06T09:21:16.630Z,10.30
2022-09-06T09:22:16.637Z,8.20
2022-09-06T09:23:16.624Z,10.10
2022-09-06T09:24:16.602Z,11.60
2022-09-06T09:25:16.597Z,9.70
2022-09-06T09:26:16.575Z,8.80
2022-09-06T09:27:16.589Z,12.60
2022-09-06T09:28:16.602Z,10.10
2022-09-06T09:29:16.548Z,8.10
2022-09-06T09:31:18.587Z,8.40
2022-09-06T09:32:16.543Z,8.60
2022-09-06T09:33:16.511Z,9.60
2022-09-06T09:34:16.502Z,9.20
2022-09-06T09:35:16.495Z,9.00
2022-09-06T09:36:16.500Z,8.10
2022-09-06T09:38:18.482Z,7.00
2022-09-06T09:39:16.457Z,10.20
2022-09-06T09:40:16.449Z,5.70
2022-09-06T09:41:16.442Z,6.30
2022-09-06T09:42:16.449Z,6.00
2022-09-06T09:43:16.417Z,9.00
2022-09-06T09:44:16.404Z,8.20
2022-09-06T09:45:16.395Z,9.20
2022-09-06T09:46:16.444Z,6.20
2022-09-06T09:47:16.404Z,9.30
2022-09-06T09:48:16.364Z,8.00
2022-09-06T09:49:16.367Z,7.90
2022-09-06T09:50:16.358Z,7.50
2022-09-06T09:51:23.980Z,8.70
2022-09-06T09:52:18.345Z,8.30
2022-09-06T09:53:16.342Z,7.30
2022-09-06T09:54:16.322Z,8.50
2022-09-06T09:55:16.305Z,8.50
2022-09-06T09:56:16.301Z,7.80
2022-09-06T09:57:16.308Z,10.00
2022-09-06T09:58:16.272Z,8.80
2022-09-06T09:59:16.270Z,11.30
2022-09-06T10:00:16.274Z,8.40
2022-09-06T10:01:16.314Z,7.70
2022-09-06T10:02:16.258Z,10.40
2022-09-06T10:03:16.272Z,8.80
2022-09-06T10:04:46.034Z,8.00
2022-09-06T10:05:18.213Z,7.90
2022-09-06T10:07:18.219Z,9.40
2022-09-06T10:08:16.185Z,5.70
2022-09-06T10:09:19.157Z,8.90
2022-09-06T10:10:17.150Z,6.80
2022-09-06T10:11:16.148Z,7.60
2022-09-06T10:12:16.157Z,7.80
2022-09-06T10:13:16.131Z,8.60
2022-09-06T10:14:16.143Z,8.80
2022-09-06T10:15:16.100Z,6.00
2022-09-06T10:16:16.131Z,5.60
2022-09-06T10:17:16.111Z,6.10
2022-09-06T10:18:16.075Z,9.50
2022-09-06T10:19:16.076Z,7.10
2022-09-06T10:20:16.062Z,10.20
2022-09-06T10:21:16.052Z,9.10
2022-09-06T10:22:16.059Z,6.90
2022-09-06T10:23:16.383Z,6.50
2022-09-06T10:25:18.009Z,6.40
2022-09-06T10:26:15.991Z,6.50
2022-09-06T10:27:16.014Z,8.10
2022-09-06T10:28:15.985Z,9.00
2022-09-06T10:29:15.979Z,7.70
2022-09-06T10:30:15.957Z,4.90
2022-09-06T10:31:16.005Z,6.90
2022-09-06T10:32:15.966Z,7.20
2022-09-06T10:33:15.994Z,7.20
2022-09-06T10:34:15.932Z,6.10
2022-09-06T10:35:15.923Z,6.60
2022-09-06T10:36:15.909Z,4.80
2022-09-06T10:37:15.929Z,7.10
2022-09-06T10:38:15.891Z,6.60
2022-09-06T10:39:15.881Z,10.60
2022-09-06T10:40:15.909Z,8.70
2022-09-06T10:41:15.861Z,9.40
2022-09-06T10:42:15.881Z,7.30
2022-09-06T10:43:15.837Z,6.10
2022-09-06T10:44:15.842Z,6.60
2022-09-06T10:45:15.867Z,4.40
2022-09-06T10:46:15.872Z,10.20
2022-09-06T10:47:15.819Z,5.20
2022-09-06T10:48:15.800Z,7.50
2022-09-06T10:49:15.785Z,12.30
2022-09-06T10:50:15.770Z,8.60
2022-09-06T10:51:15.771Z,8.30
2022-09-06T10:52:15.777Z,6.20
2022-09-06T10:53:15.754Z,8.50
2022-09-06T10:54:15.732Z,7.30
2022-09-06T10:55:15.728Z,8.10
2022-09-06T10:56:15.720Z,6.70
2022-09-06T10:58:18.405Z,6.50
2022-09-06T11:00:17.698Z,10.40
2022-09-06T11:01:15.709Z,6.30
2022-09-06T11:02:15.788Z,6.30
2022-09-06T11:04:17.690Z,7.30
2022-09-06T11:06:19.527Z,5.30
2022-09-06T11:07:15.637Z,9.50
2022-09-06T11:09:17.605Z,5.80
2022-09-06T11:10:15.588Z,4.70
2022-09-06T11:11:15.584Z,6.50
2022-09-06T11:12:15.598Z,7.80
2022-09-06T11:13:15.565Z,6.90
2022-09-06T11:14:15.577Z,4.50
2022-09-06T11:15:15.543Z,11.30
2022-09-06T11:16:15.614Z,5.30
2022-09-06T11:17:15.539Z,8.10
2022-09-06T11:18:16.516Z,5.60
2022-09-06T11:19:15.503Z,6.80
2022-09-06T11:20:15.500Z,6.90
2022-09-06T11:21:19.324Z,4.30
2022-09-06T11:22:16.495Z,7.50
2022-09-06T11:23:16.470Z,5.50
2022-09-06T11:24:15.462Z,4.10
2022-09-06T11:25:15.453Z,5.00
2022-09-06T11:26:15.435Z,6.30
2022-09-06T11:27:15.454Z,7.10
2022-09-06T11:28:15.433Z,7.00
2022-09-06T11:29:15.412Z,5.30
2022-09-06T11:30:15.404Z,5.30
2022-09-06T11:32:17.940Z,6.20
2022-09-06T11:33:15.376Z,6.10
2022-09-06T11:34:15.372Z,8.30
2022-09-06T11:35:15.360Z,7.30
2022-09-06T11:36:15.342Z,5.30
2022-09-06T11:37:15.352Z,7.70
2022-09-06T11:38:15.330Z,4.70
2022-09-06T11:39:15.315Z,5.40
2022-09-06T11:40:30.650Z,7.40
2022-09-06T11:41:17.298Z,8.10
2022-09-06T11:42:15.292Z,8.10
2022-09-06T11:43:15.280Z,3.60
2022-09-06T11:44:15.270Z,5.70
2022-09-06T11:45:15.280Z,3.90
2022-09-06T11:46:18.655Z,4.50
2022-09-06T11:47:17.266Z,4.60
2022-09-06T11:48:15.230Z,5.00
2022-09-06T11:49:15.223Z,5.00
2022-09-06T11:50:15.228Z,5.40
2022-09-06T11:51:15.199Z,3.50
2022-09-06T11:52:15.212Z,3.80
2022-09-06T11:53:15.187Z,6.10
2022-09-06T11:54:15.173Z,7.80
2022-09-06T11:55:15.163Z,6.10
2022-09-06T11:56:15.155Z,3.70
2022-09-06T11:57:15.177Z,3.50
2022-09-06T11:58:15.132Z,4.90
2022-09-06T11:59:15.132Z,5.10
2022-09-06T12:00:15.138Z,6.80
2022-09-06T12:01:15.104Z,4.40
2022-09-06T12:02:15.113Z,6.50
2022-09-06T12:04:17.080Z,5.40
2022-09-06T12:05:15.079Z,3.20
2022-09-06T12:06:15.065Z,5.50
2022-09-06T12:07:15.067Z,7.50
2022-09-06T12:08:15.046Z,5.80
2022-09-06T12:09:15.034Z,4.30
2022-09-06T12:10:15.012Z,4.40
2022-09-06T12:11:15.009Z,8.00
2022-09-06T12:12:17.113Z,3.90
2022-09-06T12:13:15.984Z,4.30
2022-09-06T12:14:14.974Z,6.00
2022-09-06T12:15:14.969Z,6.60
2022-09-06T12:16:15.034Z,3.50
2022-09-06T12:17:14.973Z,4.10
2022-09-06T12:18:14.945Z,5.30
2022-09-06T12:19:14.939Z,4.90
2022-09-06T12:20:14.930Z,5.00
2022-09-06T12:21:14.919Z,3.20
2022-09-06T12:22:14.914Z,6.60
2022-09-06T12:23:14.892Z,4.90
2022-09-06T12:24:14.901Z,4.30
2022-09-06T12:25:14.874Z,6.10
2022-09-06T12:26:14.866Z,3.00
2022-09-06T12:27:14.875Z,7.60
2022-09-06T12:28:14.843Z,4.60
2022-09-06T12:29:14.843Z,3.50
2022-09-06T12:30:14.852Z,3.80
2022-09-06T12:31:18.297Z,6.30
2022-09-06T12:32:15.824Z,4.60
2022-09-06T12:33:14.788Z,7.90
2022-09-06T12:34:14.790Z,6.20
2022-09-06T12:36:16.779Z,4.00
2022-09-06T12:37:14.783Z,3.70
2022-09-06T12:38:14.748Z,4.90
2022-09-06T12:39:14.751Z,5.90
2022-09-06T12:40:14.846Z,3.90
2022-09-06T12:41:14.731Z,6.10
2022-09-06T12:42:14.744Z,7.60
2022-09-06T12:43:14.705Z,3.30
2022-09-06T12:44:14.689Z,5.50
2022-09-06T12:45:14.685Z,4.00
2022-09-06T12:46:14.707Z,5.60
2022-09-06T12:47:14.711Z,3.90
2022-09-06T12:48:14.657Z,5.50
2022-09-06T12:49:14.649Z,3.80
2022-09-06T12:50:14.663Z,6.00
2022-09-06T12:51:14.629Z,5.40
2022-09-06T12:52:14.647Z,3.70
2022-09-06T12:53:15.881Z,5.30
2022-09-06T12:54:15.596Z,63.20
2022-09-06T12:55:14.599Z,38.80
2022-09-06T12:56:14.585Z,6.50
2022-09-06T12:57:14.595Z,5.50
2022-09-06T12:58:14.569Z,3.90
2022-09-06T12:59:14.560Z,4.50
2022-09-06T13:00:14.551Z,5.00
2022-09-06T13:01:14.593Z,4.10
2022-09-06T13:02:14.677Z,6.50
2022-09-06T13:03:14.521Z,5.80
2022-09-06T13:04:14.510Z,4.70
2022-09-06T13:05:14.502Z,5.00
2022-09-06T13:06:14.530Z,5.70
2022-09-06T13:07:14.506Z,8.20
2022-09-06T13:08:14.469Z,3.80
2022-09-06T13:09:14.455Z,3.30
2022-09-06T13:10:15.449Z,3.50
2022-09-06T13:11:14.439Z,4.20
2022-09-06T13:12:14.447Z,6.90
2022-09-06T13:13:14.425Z,6.70
2022-09-06T13:14:14.787Z,5.20
2022-09-06T13:15:14.408Z,9.40
2022-09-06T13:16:14.499Z,3.70
2022-09-06T13:17:14.413Z,6.00
2022-09-06T13:18:14.362Z,4.30
2022-09-06T13:19:14.369Z,4.30
2022-09-06T13:20:14.365Z,5.90
2022-09-06T13:21:14.348Z,4.30
2022-09-06T13:22:14.361Z,6.10
2022-09-06T13:23:14.329Z,6.30
2022-09-06T13:24:14.327Z,3.10
2022-09-06T13:25:16.682Z,6.00
2022-09-06T13:26:15.289Z,4.00
2022-09-06T13:27:14.309Z,6.40